Time;durP1;ratioP1;P1;durP2;ratioP2;P2;SDS_P1;SDS_P2;PMS_P1;PMS_P2;Temp;Humidity;BMP_temperature;BMP_pressure;BME280_temperature;BME280_humidity;BME280_pressure;Samples;Min_cycle;Max_cycle;Signal;HPM_P1;HPM_P2
2021/12/18 00:01:03;;;;;;;10.20;3.93;;;;;;;-0.60;100.00;97925.50;5103247;28;20063;-65
2021/12/18 00:03:30;;;;;;;6.10;3.23;;;;;;;-0.60;100.00;97924.66;5099036;28;20123;-65
2021/12/18 00:05:59;;;;;;;5.97;2.80;;;;;;;-0.63;100.00;97924.72;5096777;28;20038;-65
2021/12/18 00:08:26;;;;;;;6.80;2.73;;;;;;;-0.64;100.00;97929.03;5106113;28;20047;-64
2021/12/18 00:10:55;;;;;;;5.07;2.80;;;;;;;-0.61;100.00;97935.88;5101421;28;20487;-65
2021/12/18 00:13:23;;;;;;;2.90;2.17;;;;;;;-0.64;100.00;97938.56;5094233;28;20039;-65
2021/12/18 00:15:50;;;;;;;3.70;2.00;;;;;;;-0.64;100.00;97941.97;5100190;28;21497;-64
2021/12/18 00:18:17;;;;;;;3.90;2.00;;;;;;;-0.68;100.00;97937.75;5097653;28;20048;-64
2021/12/18 00:20:45;;;;;;;2.27;1.60;;;;;;;-0.67;100.00;97939.44;5098327;28;20408;-64
2021/12/18 00:23:14;;;;;;;1.97;1.70;;;;;;;-0.60;100.00;97950.50;5097604;28;20093;-65
2021/12/18 00:25:41;;;;;;;2.23;1.20;;;;;;;-0.63;100.00;97950.59;5103833;28;20044;-65
2021/12/18 00:28:09;;;;;;;2.70;1.63;;;;;;;-0.67;100.00;97954.13;5102060;28;20123;-65
2021/12/18 00:30:36;;;;;;;4.07;1.73;;;;;;;-0.67;100.00;97956.72;5097805;28;20044;-65
2021/12/18 00:33:05;;;;;;;3.67;2.17;;;;;;;-0.65;100.00;97952.34;5098642;28;20111;-65
2021/12/18 00:35:33;;;;;;;2.27;1.80;;;;;;;-0.69;100.00;97951.56;5103777;28;20068;-65
2021/12/18 00:38:00;;;;;;;5.47;1.77;;;;;;;-0.68;100.00;97957.56;5103776;28;20050;-64
2021/12/18 00:40:36;;;;;;;2.27;2.00;;;;;;;-0.67;100.00;97959.28;5103861;28;20048;-65
2021/12/18 00:43:20;;;;;;;2.60;1.90;;;;;;;-0.64;100.00;97948.88;5108647;28;20051;-65
2021/12/18 00:45:47;;;;;;;1.93;1.73;;;;;;;-0.64;100.00;97954.88;5105663;28;20051;-65
2021/12/18 00:48:14;;;;;;;2.23;1.77;;;;;;;-0.66;100.00;97958.41;5108380;27;20047;-65
2021/12/18 00:50:41;;;;;;;4.53;1.97;;;;;;;-0.66;100.00;97959.25;5094488;28;20040;-66
2021/12/18 00:53:08;;;;;;;2.20;1.90;;;;;;;-0.67;100.00;97960.13;5101080;28;20119;-65
2021/12/18 00:55:38;;;;;;;4.17;2.27;;;;;;;-0.68;100.00;97967.91;5099299;28;20047;-65
2021/12/18 00:58:06;;;;;;;2.73;2.00;;;;;;;-0.71;100.00;97968.84;5100781;28;20059;-65
2021/12/18 01:00:33;;;;;;;2.63;2.07;;;;;;;-0.65;100.00;97963.53;5099858;28;20576;-65
2021/12/18 01:03:02;;;;;;;5.07;2.50;;;;;;;-0.63;100.00;97972.09;5101509;28;20118;-66
2021/12/18 01:05:31;;;;;;;3.47;2.30;;;;;;;-0.62;100.00;97979.00;5102596;28;20126;-65
2021/12/18 01:07:59;;;;;;;4.73;2.73;;;;;;;-0.63;100.00;97972.09;5101915;28;20062;-65
2021/12/18 01:10:41;;;;;;;5.97;3.27;;;;;;;-0.72;100.00;97998.16;5096530;28;20056;-64
2021/12/18 01:13:14;;;;;;;5.20;2.63;;;;;;;-0.80;100.00;97984.56;5094528;28;20058;-65
2021/12/18 01:15:46;;;;;;;;;;;;;;;-0.81;100.00;97985.47;5104847;28;20044;-65
2021/12/18 01:23:42;;;;;;;3.50;2.50;;;;;;;-0.80;100.00;97997.50;5094113;28;20051;-65
2021/12/18 01:26:09;;;;;;;4.83;3.33;;;;;;;-0.76;100.00;97998.25;5111913;28;20042;-65
2021/12/18 01:28:37;;;;;;;6.10;2.73;;;;;;;-0.75;100.00;97999.97;5105372;28;20164;-65
2021/12/18 01:31:05;;;;;;;4.53;2.30;;;;;;;-0.76;100.00;98001.72;5092472;28;20495;-64
2021/12/18 01:33:33;;;;;;;3.80;2.30;;;;;;;-0.78;100.00;97998.28;5107627;28;20039;-64
2021/12/18 01:36:01;;;;;;;3.70;2.17;;;;;;;-0.77;100.00;98005.19;5105930;28;20146;-66
2021/12/18 01:38:30;;;;;;;4.60;3.20;;;;;;;-0.78;100.00;98015.56;5105023;28;20036;-65
2021/12/18 01:40:58;;;;;;;3.23;2.20;;;;;;;-0.83;100.00;98007.88;5103807;28;20039;-65
2021/12/18 01:46:33;;;;;;;2.60;1.93;;;;;;;-0.90;100.00;98008.03;5097561;28;20044;-65
2021/12/18 01:52:01;;;;;;;2.27;1.60;;;;;;;-0.83;100.00;98015.66;5100444;28;20115;-65
2021/12/18 01:54:28;;;;;;;1.95;1.85;;;;;;;-0.86;100.00;98015.72;5094085;28;20052;-66
2021/12/18 01:56:56;;;;;;;2.27;1.60;;;;;;;-0.88;100.00;98017.50;5099235;28;20074;-66
2021/12/18 01:59:38;;;;;;;5.07;2.30;;;;;;;-0.86;100.00;98023.47;5108495;28;20047;-67
2021/12/18 02:02:06;;;;;;;2.63;1.90;;;;;;;-0.83;100.00;98022.53;5095967;28;20119;-67
2021/12/18 02:04:34;;;;;;;1.27;1.17;;;;;;;-0.82;100.00;98021.69;5095661;28;20044;-65
2021/12/18 02:07:01;;;;;;;3.57;1.77;;;;;;;-0.83;100.00;98025.97;5096742;28;20388;-65
2021/12/18 02:09:33;;;;;;;3.37;2.20;;;;;;;-0.82;100.00;98025.09;5104153;28;20127;-66
2021/12/18 02:12:00;;;;;;;2.13;1.63;;;;;;;-0.86;100.00;98026.03;5093493;28;20559;-65
2021/12/18 02:19:32;;;;;;;2.37;1.47;;;;;;;-0.91;100.00;98033.06;5098950;28;20461;-65
2021/12/18 02:20:23;;;;;;;2.40;1.57;;;;;;;-0.86;100.00;98049.31;5098646;28;20039;-65
2021/12/18 02:22:51;;;;;;;2.67;1.40;;;;;;;-0.89;100.00;98045.94;5103627;28;20071;-66
2021/12/18 02:25:20;;;;;;;4.70;2.07;;;;;;;-0.88;100.00;98051.09;5092429;28;20550;-65
2021/12/18 02:27:49;;;;;;;4.13;2.17;;;;;;;-0.92;100.00;98054.63;5107726;28;20031;-65
2021/12/18 02:30:17;;;;;;;2.30;1.70;;;;;;;-0.90;100.00;98050.25;5113071;28;20048;-65
2021/12/18 02:32:44;;;;;;;3.87;1.50;;;;;;;-0.85;100.00;98045.00;5098645;28;20036;-64
2021/12/18 02:35:23;;;;;;;2.10;1.17;;;;;;;-0.88;100.00;98043.34;5109119;28;20142;-65
2021/12/18 02:37:50;;;;;;;2.80;1.53;;;;;;;-0.87;100.00;98050.19;5093922;28;20039;-65
2021/12/18 02:43:14;;;;;;;2.73;1.57;;;;;;;-0.92;100.00;98046.88;5108789;28;20053;-66
2021/12/18 02:45:41;;;;;;;2.20;1.57;;;;;;;-0.92;100.00;98048.59;5092648;28;20047;-65
2021/12/18 02:48:08;;;;;;;1.53;1.30;;;;;;;-0.91;100.00;98047.69;5093653;28;20044;-65
2021/12/18 02:50:39;;;;;;;2.03;1.50;;;;;;;-0.92;100.00;98048.59;5097947;28;20144;-66
2021/12/18 02:53:06;;;;;;;2.47;1.07;;;;;;;-0.98;100.00;98043.53;5103420;28;20035;-65
2021/12/18 02:55:33;;;;;;;3.37;1.50;;;;;;;-1.03;100.00;98042.78;5106422;28;20405;-64
2021/12/18 02:58:00;;;;;;;2.30;1.33;;;;;;;-1.00;100.00;98040.16;5094494;28;20067;-66
2021/12/18 03:00:28;;;;;;;1.50;1.20;;;;;;;-1.00;100.00;98043.56;5109732;28;20047;-65
2021/12/18 03:02:56;;;;;;;2.77;1.83;;;;;;;-1.01;100.00;98030.66;5096255;28;20393;-65
2021/12/18 03:05:29;;;;;;;2.07;1.50;;;;;;;-1.05;100.00;98050.56;5102563;28;20051;-66
2021/12/18 03:08:06;;;;;;;2.80;1.52;;;;;;;-1.07;100.00;98065.22;5104431;28;20200;-66
2021/12/18 03:19:26;;;;;;;1.70;0.97;;;;;;;-1.12;100.00;98085.16;5105626;28;20028;-65
2021/12/18 03:24:34;;;;;;;4.17;1.60;;;;;;;-1.12;100.00;98086.88;5112385;28;20043;-64
2021/12/18 03:27:01;;;;;;;1.60;1.23;;;;;;;-1.07;100.00;98090.25;5105248;28;20484;-66
2021/12/18 03:29:28;;;;;;;2.37;1.30;;;;;;;-1.09;100.00;98087.69;5091099;28;20105;-66
2021/12/18 03:31:55;;;;;;;2.17;1.50;;;;;;;-1.11;100.00;98089.44;5091271;28;20036;-66
2021/12/18 03:34:22;;;;;;;3.30;1.23;;;;;;;-1.14;100.00;98084.34;5105643;28;20427;-64
2021/12/18 03:36:50;;;;;;;2.30;1.10;;;;;;;-1.13;100.00;98091.22;5105113;28;20044;-65
2021/12/18 03:39:17;;;;;;;1.47;1.10;;;;;;;-1.11;100.00;98107.50;5105630;28;20043;-65
2021/12/18 03:41:46;;;;;;;6.03;1.20;;;;;;;-1.11;100.00;98099.75;5110983;28;20412;-65
2021/12/18 03:44:13;;;;;;;1.97;1.00;;;;;;;-1.16;100.00;98099.00;5107852;28;20123;-64
2021/12/18 03:46:40;;;;;;;1.50;1.23;;;;;;;-1.16;100.00;98099.00;5109248;28;20126;-65
2021/12/18 03:49:07;;;;;;;1.70;1.10;;;;;;;-1.13;100.00;98093.78;5111230;28;20039;-65
2021/12/18 03:51:34;;;;;;;1.20;1.10;;;;;;;-1.14;100.00;98097.25;5104434;28;20055;-65
2021/12/18 03:54:02;;;;;;;2.77;1.17;;;;;;;-1.07;100.00;98098.00;5104089;28;20051;-64
2021/12/18 03:56:29;;;;;;;3.23;0.93;;;;;;;-1.04;100.00;98105.69;5111153;28;20130;-65
2021/12/18 03:58:57;;;;;;;1.37;0.53;;;;;;;-1.09;100.00;98085.09;5097453;28;20067;-66
2021/12/18 04:01:25;;;;;;;0.60;0.60;;;;;;;-1.15;100.00;98098.13;5105163;28;20043;-66
2021/12/18 04:03:52;;;;;;;0.80;0.80;;;;;;;-1.15;100.00;98105.88;5094777;28;20086;-66
2021/12/18 04:06:19;;;;;;;0.90;0.73;;;;;;;-1.16;100.00;98106.75;5095804;28;20039;-66
2021/12/18 04:08:47;;;;;;;1.73;0.57;;;;;;;-1.15;100.00;98105.03;5099244;28;20051;-66
2021/12/18 04:11:14;;;;;;;1.23;0.63;;;;;;;-1.15;100.00;98100.69;5099006;28;20508;-65
2021/12/18 04:13:44;;;;;;;0.80;0.60;;;;;;;-1.13;100.00;98114.47;5090639;28;20036;-65
2021/12/18 04:16:13;;;;;;;1.60;0.70;;;;;;;-1.17;100.00;98110.22;5105793;28;20112;-65
2021/12/18 04:18:40;;;;;;;1.50;0.90;;;;;;;-1.14;100.00;98122.22;5110692;28;20408;-65
2021/12/18 04:21:08;;;;;;;1.07;0.60;;;;;;;-1.11;100.00;98119.59;5095080;28;20443;-65
2021/12/18 04:23:35;;;;;;;0.80;0.57;;;;;;;-1.11;100.00;98132.50;5102460;28;20063;-64
2021/12/18 04:26:02;;;;;;;1.73;0.60;;;;;;;-1.14;100.00;98124.81;5110143;28;20044;-65
2021/12/18 04:28:29;;;;;;;0.60;0.60;;;;;;;-1.13;100.00;98119.63;5098598;28;20101;-65
2021/12/18 04:30:56;;;;;;;1.87;0.70;;;;;;;-1.09;100.00;98121.28;5107669;28;20039;-65
2021/12/18 04:33:26;;;;;;;0.70;0.63;;;;;;;-1.11;100.00;98127.34;5105033;28;20097;-65
2021/12/18 04:35:53;;;;;;;3.27;1.07;;;;;;;-1.14;100.00;98128.25;5090350;28;20500;-65
2021/12/18 04:38:20;;;;;;;3.10;1.07;;;;;;;-1.18;100.00;98126.59;5097325;28;20124;-66
2021/12/18 04:40:49;;;;;;;2.70;1.37;;;;;;;-1.19;100.00;98126.66;5100135;28;20040;-65
2021/12/18 04:43:16;;;;;;;2.03;0.93;;;;;;;-1.26;100.00;98118.13;5093990;28;20139;-65
2021/12/18 04:45:43;;;;;;;2.00;0.83;;;;;;;-1.22;100.00;98124.94;5110428;28;20054;-66
2021/12/18 04:48:10;;;;;;;2.27;1.40;;;;;;;-1.19;100.00;98118.91;5110600;28;20044;-66
2021/12/18 04:50:39;;;;;;;1.77;1.30;;;;;;;-1.21;100.00;98116.34;5110536;28;20040;-66
2021/12/18 04:53:06;;;;;;;1.23;1.07;;;;;;;-1.22;100.00;98124.94;5092059;28;20064;-65
2021/12/18 04:55:33;;;;;;;2.60;0.90;;;;;;;-1.25;100.00;98130.19;5096027;28;20044;-65
2021/12/18 04:58:00;;;;;;;2.40;1.20;;;;;;;-1.21;100.00;98128.38;5099847;28;20071;-65
2021/12/18 05:00:36;;;;;;;1.27;0.80;;;;;;;-1.22;100.00;98130.09;5089544;28;20048;-65
2021/12/18 05:03:05;;;;;;;1.90;0.70;;;;;;;-1.20;100.00;98127.50;5091809;28;20068;-66
2021/12/18 05:05:33;;;;;;;0.70;0.70;;;;;;;-1.19;100.00;98134.41;5097543;28;20044;-64
2021/12/18 05:08:01;;;;;;;1.03;0.80;;;;;;;-1.15;100.00;98142.03;5100843;28;20066;-65
2021/12/18 05:10:28;;;;;;;2.33;0.40;;;;;;;-1.12;100.00;98141.97;5094760;28;20040;-65
2021/12/18 05:12:55;;;;;;;0.93;0.67;;;;;;;-1.15;100.00;98151.53;5106916;28;20404;-65
2021/12/18 05:15:22;;;;;;;0.73;0.73;;;;;;;-1.14;100.00;98143.75;5109351;28;20034;-64
2021/12/18 05:17:49;;;;;;;2.60;0.67;;;;;;;-1.13;100.00;98155.78;5100137;28;20044;-68
2021/12/18 05:20:17;;;;;;;1.43;0.97;;;;;;;-1.14;100.00;98164.44;5095752;28;20506;-65
2021/12/18 05:22:44;;;;;;;2.10;0.90;;;;;;;-1.14;100.00;98164.44;5097624;28;20097;-65
2021/12/18 05:25:13;;;;;;;0.60;0.50;;;;;;;-1.14;100.00;98153.22;5102665;28;20175;-63
2021/12/18 05:27:40;;;;;;;2.20;0.73;;;;;;;-1.14;100.00;98154.09;5111572;28;20048;-64
2021/12/18 05:30:11;;;;;;;4.30;1.27;;;;;;;-1.12;100.00;98144.56;5095772;28;20036;-64
2021/12/18 05:32:38;;;;;;;0.83;0.50;;;;;;;-1.09;100.00;98154.84;5097085;28;20043;-65
2021/12/18 05:35:06;;;;;;;0.60;0.60;;;;;;;-1.11;100.00;98143.69;5108808;28;20044;-64
2021/12/18 05:37:45;;;;;;;0.53;0.50;;;;;;;-1.12;100.00;98139.41;5100824;28;20070;-65
2021/12/18 05:40:15;;;;;;;0.80;0.80;;;;;;;-1.17;100.00;98159.31;5096674;28;20044;-64
2021/12/18 05:42:42;;;;;;;0.63;0.63;;;;;;;-1.20;100.00;98158.50;5094298;28;20055;-65
2021/12/18 05:45:10;;;;;;;2.07;0.97;;;;;;;-1.25;100.00;98148.28;5107691;28;20816;-65
2021/12/18 05:47:37;;;;;;;1.50;0.90;;;;;;;-1.21;100.00;98162.84;5099902;28;20499;-64
2021/12/18 05:50:06;;;;;;;1.37;1.07;;;;;;;-1.24;100.00;98162.88;5103815;28;20052;-64
2021/12/18 05:52:33;;;;;;;1.27;0.90;;;;;;;-1.25;100.00;98174.09;5107917;28;20059;-65
2021/12/18 05:55:00;;;;;;;2.60;0.80;;;;;;;-1.27;100.00;98177.56;5105775;28;20036;-65
2021/12/18 05:57:28;;;;;;;1.50;1.30;;;;;;;-1.27;100.00;98186.19;5104344;28;20040;-65
2021/12/18 05:59:55;;;;;;;1.40;0.83;;;;;;;-1.28;100.00;98186.19;5110451;28;20044;-65
2021/12/18 06:02:22;;;;;;;1.87;1.07;;;;;;;-1.27;100.00;98199.09;5105473;28;20054;-65
2021/12/18 06:04:50;;;;;;;2.07;1.17;;;;;;;-1.23;100.00;98205.91;5100842;28;20420;-68
2021/12/18 06:07:29;;;;;;;2.37;1.17;;;;;;;-1.27;100.00;98196.50;5095344;28;20047;-65
2021/12/18 06:09:56;;;;;;;3.37;1.40;;;;;;;-1.22;100.00;98201.59;5100415;28;20071;-65
2021/12/18 06:12:23;;;;;;;1.83;1.07;;;;;;;-1.22;100.00;98215.34;5098699;28;20046;-64
2021/12/18 06:14:52;;;;;;;1.77;0.93;;;;;;;-1.21;100.00;98211.06;5103445;28;20047;-66
2021/12/18 06:17:19;;;;;;;2.10;1.20;;;;;;;-1.17;100.00;98221.31;5101266;28;20138;-65
2021/12/18 06:19:47;;;;;;;0.87;0.87;;;;;;;-1.19;100.00;98227.38;5100541;28;20082;-65
2021/12/18 06:22:14;;;;;;;1.23;1.13;;;;;;;-1.23;100.00;98224.00;5101059;28;20079;-65
2021/12/18 06:24:41;;;;;;;1.20;0.90;;;;;;;-1.25;100.00;98225.75;5091801;28;20039;-64
2021/12/18 06:27:08;;;;;;;1.27;1.13;;;;;;;-1.25;100.00;98219.72;5096574;28;20479;-66
2021/12/18 06:29:38;;;;;;;2.27;1.43;;;;;;;-1.23;100.00;98221.41;5108300;28;20063;-65
2021/12/18 06:32:07;;;;;;;3.53;2.03;;;;;;;-1.24;100.00;98229.19;5101894;28;20051;-65
2021/12/18 06:34:35;;;;;;;1.53;1.17;;;;;;;-1.23;100.00;98226.56;5102577;28;20116;-65
2021/12/18 06:37:02;;;;;;;2.33;1.47;;;;;;;-1.21;100.00;98224.81;5104111;28;20032;-64
2021/12/18 06:39:29;;;;;;;1.10;0.93;;;;;;;-1.25;100.00;98220.59;5100001;28;20051;-65
2021/12/18 06:41:56;;;;;;;2.10;1.10;;;;;;;-1.24;100.00;98222.28;5104466;28;20071;-65
2021/12/18 06:44:23;;;;;;;3.80;1.73;;;;;;;-1.24;100.00;98230.03;5101944;28;20069;-65
2021/12/18 06:46:50;;;;;;;1.43;1.23;;;;;;;-1.23;100.00;98220.53;5109131;28;20035;-65
2021/12/18 06:49:18;;;;;;;2.30;1.27;;;;;;;-1.26;100.00;98230.94;5099776;28;20054;-66
2021/12/18 06:51:45;;;;;;;4.20;1.60;;;;;;;-1.31;100.00;98231.00;5093622;28;20488;-65
2021/12/18 06:54:12;;;;;;;4.00;1.50;;;;;;;-1.29;100.00;98238.75;5096784;28;20565;-64
2021/12/18 06:56:39;;;;;;;7.40;1.63;;;;;;;-1.24;100.00;98247.25;5097285;28;20429;-66
2021/12/18 06:59:06;;;;;;;1.93;1.47;;;;;;;-1.26;100.00;98252.44;5101914;28;20391;-65
2021/12/18 07:01:33;;;;;;;2.10;1.37;;;;;;;-1.28;100.00;98251.63;5106995;28;20055;-65
2021/12/18 07:04:00;;;;;;;1.57;1.33;;;;;;;-1.24;100.00;98249.84;5106175;28;20040;-66
2021/12/18 07:06:29;;;;;;;0.97;0.93;;;;;;;-1.27;100.00;98262.78;5098997;28;20039;-66
2021/12/18 07:08:56;;;;;;;5.13;0.90;;;;;;;-1.25;100.00;98263.63;5102769;28;20044;-65
2021/12/18 07:11:24;;;;;;;1.07;0.80;;;;;;;-1.22;100.00;98254.09;5108487;28;20048;-64
2021/12/18 07:13:51;;;;;;;2.40;0.80;;;;;;;-1.25;100.00;98246.44;5101466;28;20101;-64
2021/12/18 07:16:18;;;;;;;3.47;1.00;;;;;;;-1.23;100.00;98257.56;5096927;28;20203;-65
2021/12/18 07:18:45;;;;;;;1.23;0.77;;;;;;;-1.19;100.00;98260.97;5097963;28;20135;-66
2021/12/18 07:21:12;;;;;;;0.70;0.70;;;;;;;-1.20;100.00;98257.53;5092340;28;20079;-65
2021/12/18 07:23:41;;;;;;;1.97;0.87;;;;;;;-1.15;100.00;98255.72;5104903;28;20118;-66
2021/12/18 07:26:08;;;;;;;2.30;0.93;;;;;;;-1.07;100.00;98258.19;5101682;28;20046;-66
2021/12/18 07:28:35;;;;;;;1.97;0.57;;;;;;;-1.07;100.00;98266.75;5102632;28;20097;-66
2021/12/18 07:31:02;;;;;;;1.60;0.80;;;;;;;-0.99;100.00;98257.19;5101354;28;20037;-65
2021/12/18 07:33:29;;;;;;;0.97;0.73;;;;;;;-1.00;100.00;98273.53;5098634;28;20040;-65
2021/12/18 07:35:56;;;;;;;1.20;0.87;;;;;;;-0.96;100.00;98276.94;5107712;28;20047;-64
2021/12/18 07:38:23;;;;;;;3.63;0.80;;;;;;;-0.97;100.00;98276.06;5093879;28;20044;-65
2021/12/18 07:40:51;;;;;;;2.20;0.57;;;;;;;-0.92;100.00;98289.78;5101957;28;20102;-66
2021/12/18 07:43:19;;;;;;;1.20;0.50;;;;;;;-1.04;100.00;98289.13;5104133;28;20044;-65
2021/12/18 07:45:46;;;;;;;1.17;0.80;;;;;;;-1.11;100.00;98279.78;5107963;28;20579;-64
2021/12/18 07:48:13;;;;;;;1.47;1.00;;;;;;;-1.08;100.00;98297.81;5104862;28;20126;-65
2021/12/18 07:50:40;;;;;;;3.00;1.40;;;;;;;-1.05;100.00;98298.59;5105051;28;20119;-66
2021/12/18 07:53:07;;;;;;;1.97;1.20;;;;;;;-1.05;100.00;98302.91;5103627;28;20488;-65
2021/12/18 07:55:34;;;;;;;1.83;0.80;;;;;;;-1.06;100.00;98296.91;5098385;28;20039;-65
2021/12/18 07:58:02;;;;;;;1.83;1.37;;;;;;;-1.08;100.00;98303.81;5093492;28;20044;-66
2021/12/18 08:00:29;;;;;;;1.77;1.43;;;;;;;-1.05;100.00;98285.69;5102635;28;20043;-65
2021/12/18 08:02:57;;;;;;;1.40;0.90;;;;;;;-1.04;100.00;98295.13;5105784;28;20488;-66
2021/12/18 08:05:24;;;;;;;1.10;0.93;;;;;;;-1.07;100.00;98300.34;5101042;28;20081;-65
2021/12/18 08:07:51;;;;;;;1.87;0.90;;;;;;;-1.01;100.00;98309.72;5092080;28;20573;-65
2021/12/18 08:10:18;;;;;;;2.07;1.20;;;;;;;-0.96;100.00;98318.28;5095687;28;20510;-65
2021/12/18 08:12:45;;;;;;;1.40;1.00;;;;;;;-0.99;100.00;98308.84;5096438;28;20438;-65
2021/12/18 08:15:13;;;;;;;1.93;1.10;;;;;;;-0.90;100.00;98306.09;5103574;28;20429;-63
2021/12/18 08:17:40;;;;;;;3.30;1.20;;;;;;;-0.92;100.00;98305.31;5102048;28;20494;-66
2021/12/18 08:20:09;;;;;;;2.00;0.90;;;;;;;-0.88;100.00;98308.66;5099428;28;20040;-64
2021/12/18 08:22:37;;;;;;;1.80;1.30;;;;;;;-0.86;100.00;98300.00;5099674;28;20135;-68
2021/12/18 08:25:05;;;;;;;1.20;0.90;;;;;;;-0.84;100.00;98299.97;5100576;28;20046;-64
2021/12/18 08:27:32;;;;;;;5.00;1.60;;;;;;;-0.79;100.00;98299.03;5094244;28;20129;-65
2021/12/18 08:29:59;;;;;;;1.47;0.80;;;;;;;-0.65;100.00;98289.31;5096952;28;20036;-65
2021/12/18 08:32:28;;;;;;;2.77;1.03;;;;;;;-0.67;100.00;98293.63;5093933;28;20863;-64
2021/12/18 08:34:55;;;;;;;2.00;1.33;;;;;;;-0.73;100.00;98296.34;5108454;28;20054;-67
2021/12/18 08:37:22;;;;;;;1.90;1.20;;;;;;;-0.64;100.00;98292.75;5103002;28;20036;-66
2021/12/18 08:39:49;;;;;;;1.67;1.23;;;;;;;-0.56;100.00;98289.13;5107093;28;22065;-65
2021/12/18 08:42:17;;;;;;;2.30;1.20;;;;;;;-0.66;100.00;98290.19;5096139;28;20147;-65
2021/12/18 08:44:44;;;;;;;2.50;1.43;;;;;;;-0.60;100.00;98292.66;5100688;28;20046;-64
2021/12/18 08:47:11;;;;;;;2.03;1.40;;;;;;;-0.57;100.00;98282.25;5101567;28;20036;-67
2021/12/18 08:49:40;;;;;;;5.80;1.70;;;;;;;-0.53;100.00;98275.28;5109438;28;20036;-67
2021/12/18 08:52:07;;;;;;;1.93;1.40;;;;;;;-0.44;100.00;98288.91;5106845;28;20114;-67
2021/12/18 08:54:34;;;;;;;1.60;1.20;;;;;;;-0.43;100.00;98282.84;5102447;28;20066;-68
2021/12/18 08:57:01;;;;;;;1.97;1.53;;;;;;;-0.41;100.00;98294.00;5114464;28;20067;-68
2021/12/18 08:59:28;;;;;;;4.37;2.00;;;;;;;-0.33;100.00;98276.63;5113625;27;20031;-67
2021/12/18 09:01:55;;;;;;;4.27;2.17;;;;;;;-0.19;100.00;98281.53;5104415;28;20533;-66
2021/12/18 09:04:22;;;;;;;6.30;2.70;;;;;;;-0.11;100.00;98288.28;5092096;28;20123;-72
2021/12/18 09:06:50;;;;;;;8.60;4.50;;;;;;;-0.07;100.00;98282.16;5107245;28;20085;-63
2021/12/18 09:09:18;;;;;;;6.67;4.13;;;;;;;-0.10;100.00;98284.78;5091426;28;20131;-68
2021/12/18 09:11:45;;;;;;;6.50;3.37;;;;;;;-0.27;100.00;98284.25;5090315;28;20409;-67
2021/12/18 09:14:12;;;;;;;6.93;3.63;;;;;;;-0.32;100.00;98286.09;5091671;28;20037;-68
2021/12/18 09:16:39;;;;;;;5.30;2.43;;;;;;;-0.49;100.00;98280.38;5091752;28;20046;-68
2021/12/18 09:19:06;;;;;;;4.67;2.10;;;;;;;-0.52;100.00;98271.84;5091396;28;20044;-68
2021/12/18 09:21:33;;;;;;;4.63;2.30;;;;;;;-0.52;100.00;98275.25;5092000;28;20075;-69
2021/12/18 09:24:01;;;;;;;5.83;2.10;;;;;;;-0.55;100.00;98270.16;5091752;28;20052;-69
2021/12/18 09:26:28;;;;;;;3.47;2.57;;;;;;;-0.59;100.00;98272.81;5106829;28;20135;-70
2021/12/18 09:28:56;;;;;;;4.03;2.17;;;;;;;-0.52;100.00;98262.31;5111888;28;20127;-69
2021/12/18 09:31:25;;;;;;;4.53;1.90;;;;;;;-0.53;100.00;98246.84;5108053;28;20103;-70
2021/12/18 09:33:52;;;;;;;6.00;2.30;;;;;;;-0.55;100.00;98253.78;5091864;28;20123;-69
2021/12/18 09:36:19;;;;;;;6.33;2.73;;;;;;;-0.39;100.00;98247.44;5091550;28;20048;-68
2021/12/18 09:38:46;;;;;;;4.43;2.60;;;;;;;-0.34;100.00;98245.63;5109704;28;20576;-69
2021/12/18 09:41:15;;;;;;;5.57;2.10;;;;;;;-0.32;100.00;98241.25;5111284;28;20056;-69
2021/12/18 09:43:42;;;;;;;5.17;2.67;;;;;;;-0.33;100.00;98249.91;5105225;28;20040;-69
2021/12/18 09:46:13;;;;;;;3.80;1.87;;;;;;;-0.28;100.00;98248.94;5092354;28;20040;-69
2021/12/18 09:48:42;;;;;;;3.93;1.93;;;;;;;-0.39;100.00;98243.13;5091356;28;20064;-69
2021/12/18 09:51:18;;;;;;;7.80;2.40;;;;;;;-0.49;100.00;98249.34;5091452;28;20127;-69
2021/12/18 09:53:45;;;;;;;5.20;2.13;;;;;;;-0.58;100.00;98259.88;5109969;28;20051;-69
2021/12/18 09:56:12;;;;;;;5.07;2.17;;;;;;;-0.60;100.00;98260.78;5111672;28;20036;-69
2021/12/18 09:58:41;;;;;;;7.70;2.80;;;;;;;-0.70;100.00;98244.59;5111157;28;20051;-70
2021/12/18 10:01:08;;;;;;;3.93;2.63;;;;;;;-0.69;100.00;98246.28;5110660;28;20036;-69
2021/12/18 10:03:46;;;;;;;6.70;3.57;;;;;;;-0.59;100.00;98239.22;5111090;28;20036;-71
2021/12/18 10:06:37;;;;;;;6.73;2.77;;;;;;;-0.59;100.00;98247.81;5111040;28;20107;-69
2021/12/18 10:09:07;;;;;;;5.43;2.87;;;;;;;-0.57;100.00;98240.88;5088403;28;20144;-68
2021/12/18 10:11:34;;;;;;;6.93;3.10;;;;;;;-0.51;100.00;98229.56;5099149;28;20075;-70
2021/12/18 10:14:04;;;;;;;5.50;3.47;;;;;;;-0.50;100.00;98226.97;5099067;28;20370;-69
2021/12/18 10:16:32;;;;;;;6.67;3.43;;;;;;;-0.55;100.00;98227.94;5098983;28;20528;-68
2021/12/18 10:19:01;;;;;;;7.70;3.87;;;;;;;-0.53;100.00;98219.25;5102417;28;20046;-69
2021/12/18 10:21:30;;;;;;;6.63;3.43;;;;;;;-0.53;100.00;98226.16;5102125;28;20054;-69
2021/12/18 10:23:59;;;;;;;7.73;3.47;;;;;;;-0.51;100.00;98230.44;5099146;28;20036;-67
2021/12/18 10:26:31;;;;;;;6.60;4.53;;;;;;;-0.52;100.00;98220.94;5091650;28;20382;-68
2021/12/18 10:28:58;;;;;;;7.00;3.67;;;;;;;-0.48;100.00;98214.84;5092545;28;20044;-68
2021/12/18 10:31:41;;;;;;;7.37;3.47;;;;;;;-0.46;100.00;98218.25;5097999;28;20382;-69
2021/12/18 10:34:20;;;;;;;6.03;2.83;;;;;;;-0.41;100.00;98213.84;5102134;28;20054;-68
2021/12/18 10:37:23;;;;;;;4.10;2.73;;;;;;;-0.34;100.00;98215.41;5092489;28;20054;-72
2021/12/18 10:40:05;;;;;;;4.00;2.00;;;;;;;-0.39;100.00;98188.81;5102718;28;20154;-73
2021/12/18 10:42:35;;;;;;;6.47;3.20;;;;;;;-0.41;100.00;98213.00;5100479;28;20097;-69
2021/12/18 10:45:09;;;;;;;10.10;4.00;;;;;;;-0.34;100.00;98199.91;5103542;28;20062;-73
2021/12/18 10:48:01;;;;;;;12.80;5.67;;;;;;;-0.42;100.00;98194.03;5103960;28;20044;-75
2021/12/18 10:50:32;;;;;;;13.87;5.43;;;;;;;-0.36;100.00;98199.09;5089567;28;20048;-70
2021/12/18 10:53:02;;;;;;;13.03;5.07;;;;;;;-0.18;100.00;98178.00;5091199;28;20048;-69
2021/12/18 10:55:33;;;;;;;11.70;5.00;;;;;;;-0.05;100.00;98173.44;5105856;28;20130;-68
2021/12/18 10:58:02;;;;;;;13.50;4.90;;;;;;;-0.02;100.00;98166.44;5103245;28;20070;-67
2021/12/18 11:00:44;;;;;;;8.40;3.90;;;;;;;-0.10;100.00;98165.75;5091472;28;20044;-68
2021/12/18 11:03:25;;;;;;;8.17;4.23;;;;;;;-0.11;100.00;98165.78;5091836;28;20051;-68
2021/12/18 11:06:13;;;;;;;5.33;2.80;;;;;;;-0.24;100.00;98152.25;5101945;28;20066;-68
2021/12/18 11:08:59;;;;;;;5.30;2.70;;;;;;;-0.33;100.00;98144.72;5100807;28;20340;-69
2021/12/18 11:14:26;;;;;;;11.83;3.10;;;;;;;-0.35;100.00;98154.22;5076864;28;20071;-67
2021/12/18 11:16:55;;;;;;;6.93;2.67;;;;;;;-0.36;100.00;98155.13;5084841;28;20047;-66
2021/12/18 11:19:25;;;;;;;6.50;2.50;;;;;;;-0.32;100.00;98143.81;5103732;28;20067;-66
2021/12/18 11:21:55;;;;;;;10.13;3.27;;;;;;;-0.38;100.00;98145.69;5100706;28;20157;-66
2021/12/18 11:24:31;;;;;;;10.57;4.27;;;;;;;-0.36;100.00;98144.78;5099496;28;20542;-67
2021/12/18 11:27:00;;;;;;;7.57;3.43;;;;;;;-0.24;100.00;98149.69;5089665;28;20118;-70
2021/12/18 11:29:40;;;;;;;6.70;3.90;;;;;;;-0.10;100.00;98147.63;5094822;28;20071;-67
2021/12/18 11:32:09;;;;;;;10.63;4.10;;;;;;;-0.06;100.00;98133.75;5102024;28;20043;-67
2021/12/18 11:34:40;;;;;;;7.40;3.73;;;;;;;-0.04;100.00;98136.31;5105711;28;20036;-67
2021/12/18 11:37:09;;;;;;;5.53;3.27;;;;;;;-0.12;100.00;98130.44;5103951;28;20043;-67
2021/12/18 11:39:38;;;;;;;7.80;3.80;;;;;;;-0.24;100.00;98128.97;5106377;28;20515;-66
2021/12/18 11:42:06;;;;;;;7.87;4.03;;;;;;;-0.22;100.00;98127.22;5104841;28;20083;-67
2021/12/18 11:44:36;;;;;;;8.53;3.67;;;;;;;-0.34;100.00;98124.88;5102484;28;20509;-67
2021/12/18 11:47:32;;;;;;;8.73;4.23;;;;;;;-0.32;100.00;98133.47;5089098;28;20036;-67
2021/12/18 11:50:04;;;;;;;6.70;3.60;;;;;;;-0.29;100.00;98114.44;5053472;28;20067;-66
2021/12/18 11:52:53;;;;;;;8.50;3.90;;;;;;;-0.25;100.00;98114.34;5106076;28;20466;-67
2021/12/18 11:55:20;;;;;;;8.63;4.40;;;;;;;-0.26;100.00;98112.63;5109342;28;20044;-66
2021/12/18 11:57:49;;;;;;;7.77;4.83;;;;;;;-0.19;100.00;98114.19;5109194;28;20127;-65
2021/12/18 12:00:39;;;;;;;8.10;4.27;;;;;;;-0.21;100.00;98109.94;5109032;28;20048;-67
2021/12/18 12:03:08;;;;;;;8.27;4.97;;;;;;;-0.20;100.00;98109.91;5092642;28;20044;-67
2021/12/18 12:05:40;;;;;;;5.30;3.30;;;;;;;-0.21;100.00;98097.88;5088300;28;20155;-66